sensor_id;sensor_type;location;lat;lon;timestamp;pressure;altitude;pressure_sealevel;temperature;humidity
49611;BME280;35515;48.766;9.176;2023-03-20T00:00:22;98586.25;;;10.05;100.00
49611;BME280;35515;48.766;9.176;2023-03-20T00:02:50;98589.84;;;10.19;100.00
49611;BME280;35515;48.766;9.176;2023-03-20T00:05:20;98584.66;;;10.17;100.00
49611;BME280;35515;48.766;9.176;2023-03-20T00:07:48;98587.38;;;10.24;100.00
49611;BME280;35515;48.766;9.176;2023-03-20T00:10:16;98594.75;;;10.02;100.00
49611;BME280;35515;48.766;9.176;2023-03-20T00:12:45;98594.28;;;10.27;100.00
49611;BME280;35515;48.766;9.176;2023-03-20T00:15:23;98592.47;;;9.99;100.00
49611;BME280;35515;48.766;9.176;2023-03-20T00:17:51;98598.91;;;9.98;100.00
49611;BME280;35515;48.766;9.176;2023-03-20T00:20:20;98590.78;;;9.98;100.00
49611;BME280;35515;48.766;9.176;2023-03-20T00:22:46;98597.09;;;10.05;100.00
49611;BME280;35515;48.766;9.176;2023-03-20T00:25:14;98594.22;;;10.13;100.00
49611;BME280;35515;48.766;9.176;2023-03-20T00:27:41;98591.22;;;10.01;100.00
49611;BME280;35515;48.766;9.176;2023-03-20T00:30:20;98590.81;;;10.04;100.00
49611;BME280;35515;48.766;9.176;2023-03-20T00:32:49;98593.66;;;9.90;100.00
49611;BME280;35515;48.766;9.176;2023-03-20T00:35:19;98599.53;;;10.00;100.00
49611;BME280;35515;48.766;9.176;2023-03-20T00:37:47;98591.44;;;10.00;100.00
49611;BME280;35515;48.766;9.176;2023-03-20T00:40:13;98597.88;;;9.99;100.00
49611;BME280;35515;48.766;9.176;2023-03-20T00:42:40;98594.13;;;10.00;100.00
49611;BME280;35515;48.766;9.176;2023-03-20T00:45:11;98592.47;;;9.99;100.00
49611;BME280;35515;48.766;9.176;2023-03-20T00:47:39;98600.31;;;9.94;100.00
49611;BME280;35515;48.766;9.176;2023-03-20T00:50:12;98600.69;;;9.84;100.00
49611;BME280;35515;48.766;9.176;2023-03-20T00:52:40;98598.19;;;9.82;100.00
49611;BME280;35515;48.766;9.176;2023-03-20T00:55:08;98603.97;;;9.79;100.00
49611;BME280;35515;48.766;9.176;2023-03-20T00:57:38;98597.75;;;9.79;100.00
49611;BME280;35515;48.766;9.176;2023-03-20T01:00:10;98599.78;;;9.77;100.00
49611;BME280;35515;48.766;9.176;2023-03-20T01:02:38;98600.44;;;9.79;100.00
49611;BME280;35515;48.766;9.176;2023-03-20T01:05:05;98599.47;;;9.86;100.00
49611;BME280;35515;48.766;9.176;2023-03-20T01:07:32;98591.34;;;9.86;100.00
49611;BME280;35515;48.766;9.176;2023-03-20T01:10:00;98594.00;;;9.80;100.00
49611;BME280;35515;48.766;9.176;2023-03-20T01:12:27;98599.31;;;9.95;100.00
49611;BME280;35515;48.766;9.176;2023-03-20T01:14:54;98602.88;;;10.02;100.00
49611;BME280;35515;48.766;9.176;2023-03-20T01:17:23;98598.53;;;10.01;99.88
49611;BME280;35515;48.766;9.176;2023-03-20T01:19:50;98598.56;;;9.79;100.00
49611;BME280;35515;48.766;9.176;2023-03-20T01:22:17;98604.84;;;9.80;100.00
49611;BME280;35515;48.766;9.176;2023-03-20T01:24:43;98603.59;;;9.82;100.00
49611;BME280;35515;48.766;9.176;2023-03-20T01:27:13;98602.16;;;9.86;100.00
49611;BME280;35515;48.766;9.176;2023-03-20T01:29:40;98599.91;;;9.97;100.00
49611;BME280;35515;48.766;9.176;2023-03-20T01:32:09;98596.00;;;9.71;100.00
49611;BME280;35515;48.766;9.176;2023-03-20T01:34:37;98604.88;;;9.86;100.00
49611;BME280;35515;48.766;9.176;2023-03-20T01:37:08;98600.97;;;9.67;100.00
49611;BME280;35515;48.766;9.176;2023-03-20T01:39:36;98601.81;;;9.68;100.00
49611;BME280;35515;48.766;9.176;2023-03-20T01:42:05;98608.81;;;9.84;100.00
49611;BME280;35515;48.766;9.176;2023-03-20T01:44:34;98608.81;;;9.84;100.00
49611;BME280;35515;48.766;9.176;2023-03-20T01:47:09;98609.53;;;9.71;100.00
49611;BME280;35515;48.766;9.176;2023-03-20T01:52:41;98598.56;;;9.79;100.00
49611;BME280;35515;48.766;9.176;2023-03-20T01:55:08;98602.25;;;9.71;100.00
49611;BME280;35515;48.766;9.176;2023-03-20T01:57:35;98600.84;;;9.76;100.00
49611;BME280;35515;48.766;9.176;2023-03-20T02:00:05;98603.59;;;9.82;100.00
49611;BME280;35515;48.766;9.176;2023-03-20T02:02:37;98611.56;;;9.62;100.00
49611;BME280;35515;48.766;9.176;2023-03-20T02:05:07;98617.41;;;9.66;100.00
49611;BME280;35515;48.766;9.176;2023-03-20T02:07:35;98628.06;;;9.74;100.00
49611;BME280;35515;48.766;9.176;2023-03-20T02:10:04;98632.34;;;9.62;100.00
49611;BME280;35515;48.766;9.176;2023-03-20T02:12:32;98637.16;;;9.60;100.00
49611;BME280;35515;48.766;9.176;2023-03-20T02:14:59;98636.03;;;9.54;100.00
49611;BME280;35515;48.766;9.176;2023-03-20T02:17:27;98642.22;;;9.69;100.00
49611;BME280;35515;48.766;9.176;2023-03-20T02:20:00;98634.59;;;9.58;100.00
49611;BME280;35515;48.766;9.176;2023-03-20T02:22:42;98633.63;;;9.66;100.00
49611;BME280;35515;48.766;9.176;2023-03-20T02:25:48;98638.44;;;9.64;100.00
49611;BME280;35515;48.766;9.176;2023-03-20T02:28:55;98636.78;;;9.69;100.00
49611;BME280;35515;48.766;9.176;2023-03-20T02:31:49;98628.97;;;9.81;100.00
49611;BME280;35515;48.766;9.176;2023-03-20T02:34:55;98627.44;;;9.72;100.00
49611;BME280;35515;48.766;9.176;2023-03-20T02:37:58;98627.41;;;9.94;97.70
49611;BME280;35515;48.766;9.176;2023-03-20T02:40:33;98630.66;;;9.82;98.68
49611;BME280;35515;48.766;9.176;2023-03-20T02:43:12;98635.75;;;9.99;95.30
49611;BME280;35515;48.766;9.176;2023-03-20T02:45:48;98640.69;;;9.88;95.04
49611;BME280;35515;48.766;9.176;2023-03-20T02:48:26;98623.63;;;9.88;95.43
49611;BME280;35515;48.766;9.176;2023-03-20T02:51:00;98634.38;;;9.81;95.62
49611;BME280;35515;48.766;9.176;2023-03-20T02:53:36;98632.00;;;9.71;95.60
49611;BME280;35515;48.766;9.176;2023-03-20T02:56:11;98627.56;;;9.85;94.07
49611;BME280;35515;48.766;9.176;2023-03-20T02:58:46;98627.44;;;10.00;91.35
49611;BME280;35515;48.766;9.176;2023-03-20T03:01:16;98632.56;;;9.88;91.36
49611;BME280;35515;48.766;9.176;2023-03-20T03:03:46;98634.44;;;9.88;91.15
49611;BME280;35515;48.766;9.176;2023-03-20T03:06:17;98634.53;;;9.73;92.55
49611;BME280;35515;48.766;9.176;2023-03-20T03:08:51;98636.75;;;9.63;94.32
49611;BME280;35515;48.766;9.176;2023-03-20T03:11:20;98642.56;;;9.60;95.41
49611;BME280;35515;48.766;9.176;2023-03-20T03:13:50;98641.25;;;9.56;95.98
49611;BME280;35515;48.766;9.176;2023-03-20T03:16:20;98632.81;;;9.65;95.78
49611;BME280;35515;48.766;9.176;2023-03-20T03:18:50;98632.50;;;9.53;96.16
49611;BME280;35515;48.766;9.176;2023-03-20T03:21:20;98645.31;;;9.66;97.48
49611;BME280;35515;48.766;9.176;2023-03-20T03:23:49;98642.59;;;9.66;97.51
49611;BME280;35515;48.766;9.176;2023-03-20T03:26:19;98649.81;;;9.59;97.69
49611;BME280;35515;48.766;9.176;2023-03-20T03:28:47;98645.47;;;9.65;98.15
49611;BME280;35515;48.766;9.176;2023-03-20T03:31:16;98652.19;;;9.69;97.48
49611;BME280;35515;48.766;9.176;2023-03-20T03:33:45;98653.38;;;9.60;98.80
49611;BME280;35515;48.766;9.176;2023-03-20T03:36:19;98660.53;;;9.74;97.20
49611;BME280;35515;48.766;9.176;2023-03-20T03:38:53;98654.25;;;9.67;97.55
49611;BME280;35515;48.766;9.176;2023-03-20T03:41:28;98654.78;;;9.56;99.34
49611;BME280;35515;48.766;9.176;2023-03-20T03:44:01;98664.19;;;9.60;98.44
49611;BME280;35515;48.766;9.176;2023-03-20T03:46:36;98662.31;;;9.88;96.59
49611;BME280;35515;48.766;9.176;2023-03-20T03:49:07;98664.63;;;9.63;97.36
49611;BME280;35515;48.766;9.176;2023-03-20T03:51:38;98668.44;;;9.69;96.58
49611;BME280;35515;48.766;9.176;2023-03-20T03:54:11;98669.34;;;9.54;97.27
49611;BME280;35515;48.766;9.176;2023-03-20T03:56:40;98668.06;;;9.50;98.42
49611;BME280;35515;48.766;9.176;2023-03-20T03:59:12;98667.81;;;9.45;99.41
49611;BME280;35515;48.766;9.176;2023-03-20T04:01:41;98663.69;;;9.49;99.59
49611;BME280;35515;48.766;9.176;2023-03-20T04:04:09;98663.63;;;9.43;99.85
49611;BME280;35515;48.766;9.176;2023-03-20T04:06:37;98656.94;;;9.39;97.86
49611;BME280;35515;48.766;9.176;2023-03-20T04:09:03;98674.25;;;9.44;96.37
49611;BME280;35515;48.766;9.176;2023-03-20T04:11:31;98674.09;;;9.52;96.59
49611;BME280;35515;48.766;9.176;2023-03-20T04:14:00;98673.97;;;9.61;96.76
49611;BME280;35515;48.766;9.176;2023-03-20T04:16:26;98670.63;;;9.59;97.43
49611;BME280;35515;48.766;9.176;2023-03-20T04:18:53;98674.88;;;9.68;95.73
49611;BME280;35515;48.766;9.176;2023-03-20T04:21:20;98675.53;;;9.48;97.24
49611;BME280;35515;48.766;9.176;2023-03-20T04:23:46;98677.81;;;9.51;98.62
49611;BME280;35515;48.766;9.176;2023-03-20T04:26:13;98675.25;;;9.43;99.90
49611;BME280;35515;48.766;9.176;2023-03-20T04:28:41;98667.34;;;9.42;99.29
49611;BME280;35515;48.766;9.176;2023-03-20T04:31:07;98657.81;;;9.46;98.66
49611;BME280;35515;48.766;9.176;2023-03-20T04:33:34;98659.09;;;9.50;98.43
49611;BME280;35515;48.766;9.176;2023-03-20T04:36:00;98658.66;;;9.46;97.83
49611;BME280;35515;48.766;9.176;2023-03-20T04:38:27;98658.22;;;9.43;97.19
49611;BME280;35515;48.766;9.176;2023-03-20T04:40:54;98657.41;;;9.49;95.74
49611;BME280;35515;48.766;9.176;2023-03-20T04:43:20;98654.09;;;9.47;94.95
49611;BME280;35515;48.766;9.176;2023-03-20T04:45:48;98653.47;;;9.51;95.00
49611;BME280;35515;48.766;9.176;2023-03-20T04:48:15;98656.84;;;9.53;93.79
49611;BME280;35515;48.766;9.176;2023-03-20T04:50:41;98658.84;;;9.66;91.86
49611;BME280;35515;48.766;9.176;2023-03-20T04:53:10;98665.84;;;9.61;92.92
49611;BME280;35515;48.766;9.176;2023-03-20T04:55:37;98660.31;;;9.47;92.70
49611;BME280;35515;48.766;9.176;2023-03-20T04:58:03;98664.00;;;9.61;91.14
49611;BME280;35515;48.766;9.176;2023-03-20T05:00:31;98669.50;;;9.46;92.74
49611;BME280;35515;48.766;9.176;2023-03-20T05:02:59;98667.00;;;9.51;93.76
49611;BME280;35515;48.766;9.176;2023-03-20T05:05:25;98676.88;;;9.37;95.50
49611;BME280;35515;48.766;9.176;2023-03-20T05:07:53;98683.22;;;9.51;94.53
49611;BME280;35515;48.766;9.176;2023-03-20T05:10:20;98681.59;;;9.50;95.72
49611;BME280;35515;48.766;9.176;2023-03-20T05:12:47;98680.78;;;9.57;94.95
49611;BME280;35515;48.766;9.176;2023-03-20T05:15:13;98688.31;;;9.40;96.79
49611;BME280;35515;48.766;9.176;2023-03-20T05:17:40;98693.88;;;9.53;96.17
49611;BME280;35515;48.766;9.176;2023-03-20T05:20:09;98699.41;;;9.45;96.67
49611;BME280;35515;48.766;9.176;2023-03-20T05:22:36;98701.69;;;9.41;96.76
49611;BME280;35515;48.766;9.176;2023-03-20T05:25:03;98696.06;;;9.43;97.08
49611;BME280;35515;48.766;9.176;2023-03-20T05:27:29;98701.78;;;9.33;96.92
49611;BME280;35515;48.766;9.176;2023-03-20T05:29:56;98701.53;;;9.28;97.39
49611;BME280;35515;48.766;9.176;2023-03-20T05:32:22;98700.75;;;9.34;97.50
49611;BME280;35515;48.766;9.176;2023-03-20T05:34:49;98695.75;;;9.31;97.01
49611;BME280;35515;48.766;9.176;2023-03-20T05:37:17;98691.81;;;9.33;97.37
49611;BME280;35515;48.766;9.176;2023-03-20T05:39:43;98693.72;;;9.40;96.79
49611;BME280;35515;48.766;9.176;2023-03-20T05:42:10;98692.28;;;9.37;97.50
49611;BME280;35515;48.766;9.176;2023-03-20T05:44:37;98684.34;;;9.35;97.10
49611;BME280;35515;48.766;9.176;2023-03-20T05:47:03;98693.44;;;9.49;95.54
49611;BME280;35515;48.766;9.176;2023-03-20T05:49:30;98693.41;;;9.71;91.61
49611;BME280;35515;48.766;9.176;2023-03-20T05:51:56;98701.53;;;9.49;93.62
49611;BME280;35515;48.766;9.176;2023-03-20T05:54:24;98701.28;;;9.66;92.55
49611;BME280;35515;48.766;9.176;2023-03-20T05:56:51;98702.00;;;9.53;95.00
49611;BME280;35515;48.766;9.176;2023-03-20T05:59:17;98706.03;;;9.42;96.67
49611;BME280;35515;48.766;9.176;2023-03-20T06:01:44;98711.06;;;9.45;98.08
49611;BME280;35515;48.766;9.176;2023-03-20T06:04:10;98724.31;;;9.40;97.76
49611;BME280;35515;48.766;9.176;2023-03-20T06:06:37;98726.38;;;9.38;98.96
49611;BME280;35515;48.766;9.176;2023-03-20T06:09:04;98728.44;;;9.36;99.06
49611;BME280;35515;48.766;9.176;2023-03-20T06:11:32;98721.75;;;9.32;99.50
49611;BME280;35515;48.766;9.176;2023-03-20T06:13:59;98723.03;;;9.36;99.86
49611;BME280;35515;48.766;9.176;2023-03-20T06:16:25;98721.75;;;9.32;99.21
49611;BME280;35515;48.766;9.176;2023-03-20T06:18:52;98724.66;;;9.30;99.42
49611;BME280;35515;48.766;9.176;2023-03-20T06:21:18;98728.81;;;9.33;99.61
49611;BME280;35515;48.766;9.176;2023-03-20T06:23:45;98720.22;;;9.44;99.61
49611;BME280;35515;48.766;9.176;2023-03-20T06:26:11;98729.88;;;9.53;97.48
49611;BME280;35515;48.766;9.176;2023-03-20T06:28:39;98735.22;;;9.47;97.50
49611;BME280;35515;48.766;9.176;2023-03-20T06:31:06;98727.03;;;9.40;98.15
49611;BME280;35515;48.766;9.176;2023-03-20T06:33:34;98727.03;;;9.40;97.92
49611;BME280;35515;48.766;9.176;2023-03-20T06:36:01;98728.72;;;9.41;98.68
49611;BME280;35515;48.766;9.176;2023-03-20T06:38:27;98723.47;;;9.40;97.99
49611;BME280;35515;48.766;9.176;2023-03-20T06:40:54;98723.03;;;9.36;98.93
49611;BME280;35515;48.766;9.176;2023-03-20T06:43:20;98715.63;;;9.45;97.69
49611;BME280;35515;48.766;9.176;2023-03-20T06:45:48;98712.47;;;9.63;96.12
49611;BME280;35515;48.766;9.176;2023-03-20T06:48:15;98710.81;;;9.40;98.43
49611;BME280;35515;48.766;9.176;2023-03-20T06:50:46;98714.03;;;9.50;97.75
49611;BME280;35515;48.766;9.176;2023-03-20T06:53:13;98721.38;;;9.57;97.96
49611;BME280;35515;48.766;9.176;2023-03-20T06:55:39;98720.53;;;9.56;99.10
49611;BME280;35515;48.766;9.176;2023-03-20T06:58:06;98713.66;;;9.53;100.00
49611;BME280;35515;48.766;9.176;2023-03-20T07:00:33;98711.81;;;9.61;100.00
49611;BME280;35515;48.766;9.176;2023-03-20T07:03:00;98719.78;;;9.62;99.12
49611;BME280;35515;48.766;9.176;2023-03-20T07:05:27;98724.59;;;9.67;98.94
49611;BME280;35515;48.766;9.176;2023-03-20T07:07:54;98725.25;;;9.69;97.52
49611;BME280;35515;48.766;9.176;2023-03-20T07:10:20;98722.88;;;9.87;95.83
49611;BME280;35515;48.766;9.176;2023-03-20T07:12:47;98727.31;;;9.95;96.49
49611;BME280;35515;48.766;9.176;2023-03-20T07:15:15;98733.13;;;9.92;96.05
49611;BME280;35515;48.766;9.176;2023-03-20T07:17:41;98731.97;;;10.01;95.05
49611;BME280;35515;48.766;9.176;2023-03-20T07:20:10;98736.56;;;10.01;93.16
49611;BME280;35515;48.766;9.176;2023-03-20T07:22:37;98739.13;;;10.09;91.98
49611;BME280;35515;48.766;9.176;2023-03-20T07:25:06;98744.53;;;10.09;92.29
49611;BME280;35515;48.766;9.176;2023-03-20T07:27:33;98753.31;;;10.18;90.73
49611;BME280;35515;48.766;9.176;2023-03-20T07:30:00;98755.47;;;10.23;89.88
49611;BME280;35515;48.766;9.176;2023-03-20T07:32:26;98759.16;;;10.15;90.26
49611;BME280;35515;48.766;9.176;2023-03-20T07:34:53;98753.72;;;10.15;91.35
49611;BME280;35515;48.766;9.176;2023-03-20T07:37:21;98753.97;;;10.20;89.75
49611;BME280;35515;48.766;9.176;2023-03-20T07:39:47;98750.56;;;10.11;89.73
49611;BME280;35515;48.766;9.176;2023-03-20T07:42:14;98751.47;;;10.18;90.78
49611;BME280;35515;48.766;9.176;2023-03-20T07:44:41;98750.09;;;10.29;89.62
49611;BME280;35515;48.766;9.176;2023-03-20T07:47:07;98747.59;;;10.28;88.64
49611;BME280;35515;48.766;9.176;2023-03-20T07:49:34;98755.00;;;10.19;89.48
49611;BME280;35515;48.766;9.176;2023-03-20T07:52:01;98749.91;;;10.31;88.31
49611;BME280;35515;48.766;9.176;2023-03-20T07:54:29;98746.88;;;10.19;88.79
49611;BME280;35515;48.766;9.176;2023-03-20T07:56:55;98755.47;;;10.23;89.10
49611;BME280;35515;48.766;9.176;2023-03-20T07:59:22;98747.09;;;10.17;90.99
49611;BME280;35515;48.766;9.176;2023-03-20T08:01:48;98744.22;;;10.26;89.15
49611;BME280;35515;48.766;9.176;2023-03-20T08:04:15;98744.94;;;10.34;89.75
49611;BME280;35515;48.766;9.176;2023-03-20T08:06:43;98749.84;;;10.52;87.51
49611;BME280;35515;48.766;9.176;2023-03-20T08:09:10;98751.97;;;10.57;88.50
49611;BME280;35515;48.766;9.176;2023-03-20T08:11:38;98755.94;;;10.54;87.90
49611;BME280;35515;48.766;9.176;2023-03-20T08:14:05;98756.00;;;10.68;86.52
49611;BME280;35515;48.766;9.176;2023-03-20T08:16:31;98754.13;;;10.68;85.55
49611;BME280;35515;48.766;9.176;2023-03-20T08:18:58;98745.34;;;10.60;86.33
49611;BME280;35515;48.766;9.176;2023-03-20T08:21:25;98748.88;;;10.60;86.69
49611;BME280;35515;48.766;9.176;2023-03-20T08:23:52;98746.56;;;10.57;86.98
49611;BME280;35515;48.766;9.176;2023-03-20T08:26:20;98751.81;;;10.65;87.49
49611;BME280;35515;48.766;9.176;2023-03-20T08:28:48;98756.38;;;10.65;86.01
49611;BME280;35515;48.766;9.176;2023-03-20T08:31:16;98761.75;;;10.58;86.22
49611;BME280;35515;48.766;9.176;2023-03-20T08:33:43;98758.63;;;10.54;87.37
49611;BME280;35515;48.766;9.176;2023-03-20T08:36:10;98759.25;;;10.57;86.68
49611;BME280;35515;48.766;9.176;2023-03-20T08:38:37;98756.56;;;10.57;86.57
49611;BME280;35515;48.766;9.176;2023-03-20T08:41:05;98753.69;;;10.65;85.94
49611;BME280;35515;48.766;9.176;2023-03-20T08:43:32;98754.38;;;10.74;86.50
49611;BME280;35515;48.766;9.176;2023-03-20T08:46:00;98758.06;;;10.66;87.45
49611;BME280;35515;48.766;9.176;2023-03-20T08:48:26;98754.53;;;10.65;87.45
49611;BME280;35515;48.766;9.176;2023-03-20T08:50:53;98752.34;;;10.82;83.67
49611;BME280;35515;48.766;9.176;2023-03-20T08:53:19;98744.22;;;10.82;82.92
49611;BME280;35515;48.766;9.176;2023-03-20T08:55:47;98753.78;;;10.78;81.39
49611;BME280;35515;48.766;9.176;2023-03-20T08:58:14;98755.44;;;10.79;82.11
49611;BME280;35515;48.766;9.176;2023-03-20T09:00:41;98755.88;;;10.83;83.36
49611;BME280;35515;48.766;9.176;2023-03-20T09:03:11;98747.53;;;10.84;82.45
49611;BME280;35515;48.766;9.176;2023-03-20T09:05:39;98735.66;;;10.85;81.68
49611;BME280;35515;48.766;9.176;2023-03-20T09:08:06;98749.94;;;11.01;80.63
49611;BME280;35515;48.766;9.176;2023-03-20T09:10:32;98751.41;;;11.10;79.01
49611;BME280;35515;48.766;9.176;2023-03-20T09:12:59;98750.16;;;11.13;78.39
49611;BME280;35515;48.766;9.176;2023-03-20T09:15:26;98754.78;;;11.19;78.36
49611;BME280;35515;48.766;9.176;2023-03-20T09:17:53;98774.41;;;11.21;78.84
49611;BME280;35515;48.766;9.176;2023-03-20T09:20:21;98766.44;;;11.19;78.72
49611;BME280;35515;48.766;9.176;2023-03-20T09:22:47;98764.59;;;11.20;79.00
49611;BME280;35515;48.766;9.176;2023-03-20T09:25:14;98764.19;;;11.23;78.15
49611;BME280;35515;48.766;9.176;2023-03-20T09:27:41;98767.09;;;11.21;77.40
49611;BME280;35515;48.766;9.176;2023-03-20T09:30:09;98766.31;;;11.28;76.85
49611;BME280;35515;48.766;9.176;2023-03-20T09:32:38;98759.88;;;11.49;76.29
49611;BME280;35515;48.766;9.176;2023-03-20T09:35:05;98761.53;;;11.43;76.10
49611;BME280;35515;48.766;9.176;2023-03-20T09:37:33;98753.00;;;11.46;74.70
49611;BME280;35515;48.766;9.176;2023-03-20T09:40:00;98763.19;;;11.37;75.63
49611;BME280;35515;48.766;9.176;2023-03-20T09:42:44;98759.47;;;11.45;77.33
49611;BME280;35515;48.766;9.176;2023-03-20T09:45:21;98767.41;;;11.47;77.33
49611;BME280;35515;48.766;9.176;2023-03-20T09:47:58;98762.03;;;11.80;72.85
49611;BME280;35515;48.766;9.176;2023-03-20T09:50:30;98755.31;;;11.56;74.05
49611;BME280;35515;48.766;9.176;2023-03-20T09:53:03;98754.09;;;11.65;74.24
49611;BME280;35515;48.766;9.176;2023-03-20T09:55:35;98757.41;;;11.67;74.32
49611;BME280;35515;48.766;9.176;2023-03-20T09:58:09;98756.59;;;11.67;74.64
49611;BME280;35515;48.766;9.176;2023-03-20T10:00:39;98753.66;;;11.62;74.45
49611;BME280;35515;48.766;9.176;2023-03-20T10:03:16;98762.00;;;11.67;74.90
49611;BME280;35515;48.766;9.176;2023-03-20T10:05:46;98766.88;;;11.85;72.24
49611;BME280;35515;48.766;9.176;2023-03-20T10:08:17;98760.34;;;11.79;73.88
49611;BME280;35515;48.766;9.176;2023-03-20T10:10:49;98762.84;;;11.81;72.74
49611;BME280;35515;48.766;9.176;2023-03-20T10:13:37;98754.13;;;11.92;72.49
49611;BME280;35515;48.766;9.176;2023-03-20T10:16:12;98762.25;;;11.85;70.94
49611;BME280;35515;48.766;9.176;2023-03-20T10:18:46;98759.09;;;11.75;73.74
49611;BME280;35515;48.766;9.176;2023-03-20T10:21:16;98758.28;;;11.81;72.53
49611;BME280;35515;48.766;9.176;2023-03-20T10:23:55;98758.28;;;11.75;73.81
49611;BME280;35515;48.766;9.176;2023-03-20T10:26:25;98771.22;;;11.79;72.33
49611;BME280;35515;48.766;9.176;2023-03-20T10:28:56;98766.63;;;11.73;72.56
49611;BME280;35515;48.766;9.176;2023-03-20T10:31:32;98771.19;;;11.73;72.23
49611;BME280;35515;48.766;9.176;2023-03-20T10:34:16;98777.06;;;11.76;69.42
49611;BME280;35515;48.766;9.176;2023-03-20T10:36:55;98770.81;;;11.69;69.14
49611;BME280;35515;48.766;9.176;2023-03-20T10:39:36;98769.31;;;11.60;70.86
49611;BME280;35515;48.766;9.176;2023-03-20T10:42:15;98783.69;;;11.53;70.27
49611;BME280;35515;48.766;9.176;2023-03-20T10:44:47;98769.72;;;11.57;71.19
49611;BME280;35515;48.766;9.176;2023-03-20T10:47:17;98767.44;;;11.60;70.32
49611;BME280;35515;48.766;9.176;2023-03-20T10:49:47;98765.34;;;11.62;70.67
49611;BME280;35515;48.766;9.176;2023-03-20T10:52:17;98772.63;;;11.48;71.10
49611;BME280;35515;48.766;9.176;2023-03-20T10:54:49;98764.47;;;11.48;72.26
49611;BME280;35515;48.766;9.176;2023-03-20T10:57:22;98757.59;;;11.59;72.88
49611;BME280;35515;48.766;9.176;2023-03-20T10:59:50;98754.88;;;11.52;73.43
49611;BME280;35515;48.766;9.176;2023-03-20T11:02:19;98755.50;;;11.48;73.92
49611;BME280;35515;48.766;9.176;2023-03-20T11:04:46;98758.00;;;11.49;73.83
49611;BME280;35515;48.766;9.176;2023-03-20T11:07:20;98754.66;;;11.54;73.21
49611;BME280;35515;48.766;9.176;2023-03-20T11:10:06;98756.34;;;11.55;73.39
49611;BME280;35515;48.766;9.176;2023-03-20T11:12:36;98761.16;;;11.46;74.15
49611;BME280;35515;48.766;9.176;2023-03-20T11:15:14;98762.56;;;11.42;74.38
49611;BME280;35515;48.766;9.176;2023-03-20T11:17:41;98762.78;;;11.47;73.90
49611;BME280;35515;48.766;9.176;2023-03-20T11:20:12;98763.66;;;11.54;74.35
49611;BME280;35515;48.766;9.176;2023-03-20T11:22:39;98760.28;;;11.46;75.38
49611;BME280;35515;48.766;9.176;2023-03-20T11:25:21;98759.50;;;11.59;75.10
49611;BME280;35515;48.766;9.176;2023-03-20T11:27:49;98770.38;;;11.79;74.58
49611;BME280;35515;48.766;9.176;2023-03-20T11:30:15;98767.66;;;11.72;75.09
49611;BME280;35515;48.766;9.176;2023-03-20T11:32:45;98760.34;;;11.66;76.22
49611;BME280;35515;48.766;9.176;2023-03-20T11:35:18;98765.97;;;11.58;76.76
49611;BME280;35515;48.766;9.176;2023-03-20T11:37:47;98769.56;;;11.78;76.52
49611;BME280;35515;48.766;9.176;2023-03-20T11:40:21;98762.47;;;11.77;75.46
49611;BME280;35515;48.766;9.176;2023-03-20T11:42:51;98758.88;;;11.77;75.52
49611;BME280;35515;48.766;9.176;2023-03-20T11:45:18;98766.59;;;11.60;76.36
49611;BME280;35515;48.766;9.176;2023-03-20T11:47:48;98754.06;;;11.59;75.63
49611;BME280;35515;48.766;9.176;2023-03-20T11:50:25;98758.63;;;11.51;76.30
49611;BME280;35515;48.766;9.176;2023-03-20T11:52:52;98764.94;;;11.59;75.26
49611;BME280;35515;48.766;9.176;2023-03-20T11:55:25;98755.31;;;11.63;74.80
49611;BME280;35515;48.766;9.176;2023-03-20T11:57:55;98749.25;;;11.61;74.65
49611;BME280;35515;48.766;9.176;2023-03-20T12:00:24;98754.88;;;11.52;76.58
49611;BME280;35515;48.766;9.176;2023-03-20T12:02:52;98758.66;;;11.65;74.37
49611;BME280;35515;48.766;9.176;2023-03-20T12:05:27;98755.34;;;11.83;72.92
49611;BME280;35515;48.766;9.176;2023-03-20T12:07:56;98753.28;;;11.85;72.46
49611;BME280;35515;48.766;9.176;2023-03-20T12:10:28;98749.09;;;11.82;72.94
49611;BME280;35515;48.766;9.176;2023-03-20T12:12:58;98751.81;;;11.82;72.76
49611;BME280;35515;48.766;9.176;2023-03-20T12:15:29;98747.22;;;11.76;73.30
49611;BME280;35515;48.766;9.176;2023-03-20T12:18:00;98744.50;;;11.90;72.73
49611;BME280;35515;48.766;9.176;2023-03-20T12:20:35;98744.28;;;11.91;72.23
49611;BME280;35515;48.766;9.176;2023-03-20T12:23:11;98736.16;;;11.91;72.45
49611;BME280;35515;48.766;9.176;2023-03-20T12:25:44;98727.44;;;12.09;71.03
49611;BME280;35515;48.766;9.176;2023-03-20T12:28:17;98728.69;;;12.07;70.62
49611;BME280;35515;48.766;9.176;2023-03-20T12:31:13;98716.56;;;11.96;71.27
49611;BME280;35515;48.766;9.176;2023-03-20T12:33:46;98726.38;;;12.10;70.84
49611;BME280;35515;48.766;9.176;2023-03-20T12:36:17;98724.06;;;12.07;70.59
49611;BME280;35515;48.766;9.176;2023-03-20T12:38:46;98720.94;;;12.03;70.11
49611;BME280;35515;48.766;9.176;2023-03-20T12:41:20;98718.59;;;11.94;70.49
49611;BME280;35515;48.766;9.176;2023-03-20T12:44:19;98717.19;;;11.98;70.20
49611;BME280;35515;48.766;9.176;2023-03-20T12:46:55;98714.22;;;11.93;71.74
49611;BME280;35515;48.766;9.176;2023-03-20T12:49:35;98703.19;;;11.94;71.71
49611;BME280;35515;48.766;9.176;2023-03-20T12:52:14;98708.59;;;11.94;71.48
49611;BME280;35515;48.766;9.176;2023-03-20T12:55:08;98702.31;;;11.94;71.87
49611;BME280;35515;48.766;9.176;2023-03-20T12:57:43;98692.34;;;12.01;71.52
49611;BME280;35515;48.766;9.176;2023-03-20T13:00:20;98694.19;;;12.20;69.65
49611;BME280;35515;48.766;9.176;2023-03-20T13:02:57;98694.81;;;12.23;68.32
49611;BME280;35515;48.766;9.176;2023-03-20T13:05:33;98696.69;;;12.15;69.04
49611;BME280;35515;48.766;9.176;2023-03-20T13:08:12;98699.41;;;12.22;69.12
49611;BME280;35515;48.766;9.176;2023-03-20T13:10:48;98695.22;;;12.33;67.63
49611;BME280;35515;48.766;9.176;2023-03-20T13:13:26;98693.97;;;12.22;68.22
49611;BME280;35515;48.766;9.176;2023-03-20T13:16:04;98695.88;;;12.15;68.34
49611;BME280;35515;48.766;9.176;2023-03-20T13:18:43;98686.44;;;12.31;68.45
49611;BME280;35515;48.766;9.176;2023-03-20T13:21:18;98685.44;;;12.18;69.46